Time;durP1;ratioP1;P1;durP2;ratioP2;P2;SDS_P1;SDS_P2;PMS_P1;PMS_P2;Temp;Humidity;BMP_temperature;BMP_pressure;BME280_temperature;BME280_humidity;BME280_pressure;Samples;Min_cycle;Max_cycle;Signal;HPM_P1;HPM_P2
2024/01/20 00:00:33;;;;;;;;;26.00;26.00;;;;;6.25;100.00;102256.78;2104109;28;45394;-66
2024/01/20 00:01:33;;;;;;;;;25.75;22.50;;;;;6.25;100.00;102260.31;2097887;28;46469;-66
2024/01/20 00:02:34;;;;;;;;;28.75;28.25;;;;;6.24;100.00;102255.00;2096583;28;45632;-66
2024/01/20 00:03:35;;;;;;;;;31.75;28.50;;;;;6.26;100.00;102253.28;2096815;28;46000;-66
2024/01/20 00:04:36;;;;;;;;;27.00;26.00;;;;;6.18;100.00;102255.75;2096336;28;46579;-66
2024/01/20 00:05:37;;;;;;;;;30.50;29.25;;;;;6.12;100.00;102250.38;2097145;28;45859;-66
2024/01/20 00:06:37;;;;;;;;;38.50;34.75;;;;;6.11;100.00;102259.16;2096655;28;47115;-66
2024/01/20 00:07:37;;;;;;;;;32.25;30.50;;;;;6.09;100.00;102261.72;2096337;28;46636;-66
2024/01/20 00:08:38;;;;;;;;;26.25;26.25;;;;;6.22;100.00;102251.44;2096478;28;46062;-67
2024/01/20 00:09:38;;;;;;;;;30.75;29.00;;;;;6.17;100.00;102261.88;2091085;28;45930;-67
2024/01/20 00:10:38;;;;;;;;;30.00;28.00;;;;;6.25;100.00;102260.31;2091447;28;46910;-67
2024/01/20 00:11:39;;;;;;;;;31.75;28.25;;;;;6.16;100.00;102261.00;2096114;28;46629;-66
2024/01/20 00:12:41;;;;;;;;;28.75;26.25;;;;;6.02;100.00;102256.31;2095639;28;46895;-66
2024/01/20 00:13:42;;;;;;;;;30.60;28.80;;;;;6.09;100.00;102258.19;2096552;28;46097;-66
2024/01/20 00:14:42;;;;;;;;;27.50;27.00;;;;;6.08;100.00;102253.78;2095787;28;46909;-66
2024/01/20 00:15:42;;;;;;;;;27.25;24.25;;;;;6.06;100.00;102256.38;2096427;28;46069;-66
2024/01/20 00:16:44;;;;;;;;;30.75;30.00;;;;;5.97;100.00;102260.56;2097011;28;45003;-66
2024/01/20 00:17:45;;;;;;;;;30.60;27.60;;;;;6.19;100.00;102257.53;2096494;28;46329;-66
2024/01/20 00:18:45;;;;;;;;;27.50;24.25;;;;;6.24;100.00;102268.19;2092042;28;46816;-67
2024/01/20 00:19:45;;;;;;;;;30.75;25.50;;;;;6.25;100.00;102260.31;2095545;28;46666;-66
2024/01/20 00:20:46;;;;;;;;;29.25;24.50;;;;;6.26;100.00;102267.38;2096523;28;46347;-66
2024/01/20 00:21:46;;;;;;;;;33.00;28.50;;;;;6.16;100.00;102275.94;2096625;28;45952;-66
2024/01/20 00:22:48;;;;;;;;;29.00;29.00;;;;;6.23;100.00;102272.59;2096512;28;46871;-66
2024/01/20 00:23:49;;;;;;;;;30.60;26.80;;;;;6.24;100.00;102268.19;2095953;28;46315;-66
2024/01/20 00:24:50;;;;;;;;;30.50;25.75;;;;;6.24;100.00;102282.28;2096575;28;46232;-66
2024/01/20 00:25:50;;;;;;;;;29.50;28.75;;;;;6.23;100.00;102277.84;2095178;28;46770;-66
2024/01/20 00:26:50;;;;;;;;;31.75;29.75;;;;;6.22;100.00;102272.53;2096464;28;45655;-67
2024/01/20 00:27:51;;;;;;;;;26.75;25.25;;;;;6.19;100.00;102268.06;2096088;28;46496;-65
2024/01/20 00:28:51;;;;;;;;;30.25;28.75;;;;;6.18;100.00;102264.56;2096930;28;46097;-65
2024/01/20 00:29:52;;;;;;;;;25.00;24.00;;;;;6.17;100.00;102264.53;2096267;28;46905;-65
2024/01/20 00:30:52;;;;;;;;;29.20;27.00;;;;;6.17;100.00;102256.63;2096359;28;46486;-66
2024/01/20 00:31:53;;;;;;;;;28.25;27.50;;;;;6.19;100.00;102266.34;2094409;28;46137;-66
2024/01/20 00:32:53;;;;;;;;;30.00;28.25;;;;;6.20;100.00;102264.59;2094877;28;46177;-66
2024/01/20 00:33:53;;;;;;;;;37.75;32.50;;;;;6.19;100.00;102261.06;2095051;28;46292;-65
2024/01/20 00:34:54;;;;;;;;;28.00;28.00;;;;;6.18;100.00;102266.31;2096589;28;46295;-66
2024/01/20 00:35:54;;;;;;;;;29.25;26.75;;;;;6.18;100.00;102261.91;2096179;28;46222;-66
2024/01/20 00:36:54;;;;;;;;;30.75;25.50;;;;;6.20;100.00;102264.59;2096578;28;46172;-67
2024/01/20 00:37:55;;;;;;;;;29.00;28.00;;;;;6.20;100.00;102261.94;2095840;28;45847;-67
2024/01/20 00:38:55;;;;;;;;;29.25;24.75;;;;;6.24;100.00;102269.09;2095999;28;46389;-65
2024/01/20 00:39:56;;;;;;;;;27.50;25.00;;;;;6.28;100.00;102264.75;2095664;28;46299;-66
2024/01/20 00:40:57;;;;;;;;;32.75;28.75;;;;;6.28;100.00;102262.13;2094893;28;44951;-65
2024/01/20 00:41:57;;;;;;;;;35.25;30.00;;;;;6.31;100.00;102268.34;2076066;28;45453;-65
2024/01/20 00:42:57;;;;;;;;;33.75;28.50;;;;;6.31;100.00;102265.69;2077413;28;48033;-66
2024/01/20 00:43:58;;;;;;;;;33.75;28.25;;;;;6.23;100.00;102263.78;2096494;28;46185;-65
2024/01/20 00:44:59;;;;;;;;;32.25;27.75;;;;;6.10;100.00;102267.91;2096131;28;45608;-65
2024/01/20 00:45:59;;;;;;;;;30.25;29.00;;;;;6.13;100.00;102268.84;2096134;28;46063;-66
2024/01/20 00:46:59;;;;;;;;;32.50;29.50;;;;;6.10;100.00;102284.63;2096568;28;46508;-66
2024/01/20 00:48:00;;;;;;;;;30.25;28.00;;;;;6.15;100.00;102276.78;2095048;28;45594;-66
2024/01/20 00:49:00;;;;;;;;;31.00;29.00;;;;;6.24;100.00;102281.38;2096576;28;47179;-66
2024/01/20 00:50:03;;;;;;;;;36.75;31.25;;;;;6.29;100.00;102282.34;2096338;28;46802;-66
2024/01/20 00:51:04;;;;;;;;;32.20;30.80;;;;;6.22;100.00;102281.31;2096208;28;45249;-67
2024/01/20 00:52:05;;;;;;;;;37.00;31.50;;;;;6.27;100.00;102284.97;2095077;28;45809;-67
2024/01/20 00:53:05;;;;;;;;;32.80;30.40;;;;;6.20;100.00;102285.66;2094991;28;46622;-67
2024/01/20 00:54:07;;;;;;;;;32.25;30.75;;;;;6.19;100.00;102289.16;2096123;28;46345;-65
2024/01/20 00:55:07;;;;;;;;;30.60;30.60;;;;;6.18;100.00;102283.00;2096271;28;46592;-66
2024/01/20 00:56:07;;;;;;;;;30.75;30.75;;;;;6.17;100.00;102286.50;2096535;28;46132;-66
2024/01/20 00:57:08;;;;;;;;;29.00;27.25;;;;;6.16;100.00;102278.56;2096273;28;46429;-66
2024/01/20 00:58:09;;;;;;;;;28.50;28.50;;;;;6.15;100.00;102277.69;2096210;28;45771;-67
2024/01/20 00:59:09;;;;;;;;;32.80;29.40;;;;;6.13;100.00;102286.41;2096460;28;46400;-67
2024/01/20 01:00:11;;;;;;;;;34.75;33.00;;;;;6.19;100.00;102276.00;2095744;28;45393;-66
2024/01/20 01:01:11;;;;;;;;;23.60;21.60;;;;;6.20;100.00;102286.56;2095033;28;46373;-67
2024/01/20 01:02:12;;;;;;;;;32.75;28.25;;;;;6.17;100.00;102285.63;2086847;28;46088;-66
2024/01/20 01:03:12;;;;;;;;;31.50;29.25;;;;;6.18;100.00;102288.28;2095325;28;46823;-66
2024/01/20 01:04:12;;;;;;;;;32.50;29.25;;;;;6.16;100.00;102292.63;2096797;28;46354;-66
2024/01/20 01:05:13;;;;;;;;;29.50;27.75;;;;;6.12;100.00;102287.28;2096067;28;45509;-67
2024/01/20 01:06:13;;;;;;;;;34.50;30.25;;;;;6.09;100.00;102285.44;2095509;28;46378;-65
2024/01/20 01:07:13;;;;;;;;;28.25;24.00;;;;;6.07;100.00;102294.19;2095534;28;46206;-66
2024/01/20 01:08:13;;;;;;;;;29.50;26.00;;;;;6.26;100.00;102287.56;2096365;28;46230;-65
2024/01/20 01:09:14;;;;;;;;;27.25;22.75;;;;;6.20;100.00;102293.59;2098475;28;46368;-66
2024/01/20 01:10:15;;;;;;;;;25.25;24.00;;;;;6.18;100.00;102288.28;2096187;28;46873;-66
2024/01/20 01:11:15;;;;;;;;;22.75;22.75;;;;;6.26;100.00;102290.19;2096340;28;46699;-65
2024/01/20 01:12:16;;;;;;;;;22.50;22.50;;;;;6.13;100.00;102295.22;2096250;28;45202;-66
2024/01/20 01:13:16;;;;;;;;;24.50;24.50;;;;;6.06;100.00;102300.31;2096276;28;45124;-66
2024/01/20 01:14:16;;;;;;;;;26.00;26.00;;;;;6.00;100.00;102289.66;2095587;28;46363;-65
2024/01/20 01:15:17;;;;;;;;;28.75;25.00;;;;;6.00;100.00;102298.44;2095802;28;46684;-67
2024/01/20 01:16:17;;;;;;;;;27.25;26.50;;;;;5.95;100.00;102289.53;2094514;28;46481;-65
2024/01/20 01:17:17;;;;;;;;;24.50;23.50;;;;;5.93;100.00;102282.44;2094903;28;45961;-65
2024/01/20 01:18:18;;;;;;;;;30.00;29.00;;;;;5.89;100.00;102287.63;2095985;28;46353;-65
2024/01/20 01:19:18;;;;;;;;;31.75;28.00;;;;;5.88;100.00;102284.94;2096155;28;46485;-66
2024/01/20 01:20:19;;;;;;;;;25.75;25.25;;;;;5.87;100.00;102285.81;2099005;28;46692;-66
2024/01/20 01:21:19;;;;;;;;;31.75;28.00;;;;;5.84;100.00;102280.44;2096340;28;46257;-65
2024/01/20 01:22:19;;;;;;;;;29.25;29.25;;;;;5.82;100.00;102282.16;2095809;28;46185;-66
2024/01/20 01:23:20;;;;;;;;;27.50;26.75;;;;;5.80;100.00;102289.16;2095514;28;46211;-66
2024/01/20 01:24:21;;;;;;;;;29.50;28.00;;;;;5.82;100.00;102285.69;2095410;28;46300;-65
2024/01/20 01:25:22;;;;;;;;;30.50;29.00;;;;;5.83;100.00;102283.94;2096122;28;46703;-66
2024/01/20 01:26:23;;;;;;;;;36.60;33.00;;;;;5.98;100.00;102284.34;2096384;28;46389;-66
2024/01/20 01:27:23;;;;;;;;;35.20;30.60;;;;;5.99;100.00;102274.69;2097208;28;46234;-68
2024/01/20 01:28:24;;;;;;;;;29.25;29.25;;;;;6.03;100.00;102282.69;2094913;28;45478;-66
2024/01/20 01:29:24;;;;;;;;;36.50;31.25;;;;;6.01;100.00;102278.25;2096286;28;46638;-66
2024/01/20 01:30:24;;;;;;;;;33.75;29.25;;;;;5.99;100.00;102287.88;2096105;28;46682;-64
2024/01/20 01:31:25;;;;;;;;;31.75;26.00;;;;;5.98;100.00;102289.59;2099832;28;46703;-65
2024/01/20 01:32:25;;;;;;;;;32.75;28.25;;;;;5.95;100.00;102284.25;2098535;27;46775;-66
2024/01/20 01:33:25;;;;;;;;;32.00;27.50;;;;;5.95;100.00;102293.91;2097678;28;46383;-65
2024/01/20 01:34:26;;;;;;;;;26.50;26.00;;;;;5.92;100.00;102288.56;2097703;28;45876;-65
2024/01/20 01:35:26;;;;;;;;;36.00;31.50;;;;;5.89;100.00;102286.72;2096048;28;46221;-65
2024/01/20 01:36:26;;;;;;;;;30.00;28.75;;;;;5.87;100.00;102283.19;2096555;28;46792;-65
2024/01/20 01:37:27;;;;;;;;;32.00;29.00;;;;;5.88;100.00;102290.22;2097335;28;46737;-66
2024/01/20 01:38:27;;;;;;;;;29.25;27.00;;;;;5.88;100.00;102287.59;2096528;28;46602;-66
2024/01/20 01:39:27;;;;;;;;;28.00;27.50;;;;;5.88;100.00;102287.59;2097447;28;47033;-64
2024/01/20 01:40:28;;;;;;;;;24.50;24.25;;;;;5.87;100.00;102294.59;2098273;28;45966;-66
2024/01/20 01:41:28;;;;;;;;;28.25;26.75;;;;;5.88;100.00;102298.13;2097510;28;45110;-66
2024/01/20 01:42:29;;;;;;;;;34.00;29.00;;;;;5.89;100.00;102294.63;2097731;28;46194;-66
2024/01/20 01:43:29;;;;;;;;;29.00;27.50;;;;;5.92;100.00;102291.19;2097204;28;46191;-65
2024/01/20 01:44:29;;;;;;;;;30.00;28.50;;;;;5.93;100.00;102290.34;2097453;28;46593;-65
2024/01/20 01:45:30;;;;;;;;;28.25;24.50;;;;;5.95;100.00;102291.25;2097111;28;46973;-65
2024/01/20 01:46:31;;;;;;;;;30.25;28.75;;;;;5.97;100.00;102289.53;2101268;28;46578;-65
2024/01/20 01:47:31;;;;;;;;;30.80;28.60;;;;;5.98;100.00;102292.25;2097278;28;46410;-67
2024/01/20 01:48:33;;;;;;;;;34.00;31.00;;;;;5.99;100.00;102301.03;2097490;28;46758;-66
2024/01/20 01:49:34;;;;;;;;;28.80;27.00;;;;;5.99;100.00;102301.03;2096051;28;46830;-65
2024/01/20 01:50:35;;;;;;;;;29.50;28.50;;;;;6.01;100.00;102308.13;2096694;28;46862;-65
2024/01/20 01:51:36;;;;;;;;;28.40;26.60;;;;;6.03;100.00;102308.16;2099682;28;47280;-64
2024/01/20 01:52:36;;;;;;;;;32.50;28.75;;;;;6.02;100.00;102307.25;2097591;28;47028;-65
2024/01/20 01:53:37;;;;;;;;;35.75;32.75;;;;;6.02;100.00;102309.91;2097976;28;45717;-66
2024/01/20 01:54:38;;;;;;;;;35.75;31.25;;;;;6.01;100.00;102305.47;2097843;28;46822;-66
2024/01/20 01:55:40;;;;;;;;;32.20;27.60;;;;;6.01;100.00;102309.88;2096260;28;47164;-66
2024/01/20 01:56:45;;;;;;;;;30.20;27.20;;;;;6.02;100.00;102311.66;2097905;28;46190;-65
2024/01/20 01:57:46;;;;;;;;;28.60;28.00;;;;;6.02;100.00;102312.53;2096885;28;47556;-66
2024/01/20 01:58:47;;;;;;;;;36.50;30.75;;;;;6.02;100.00;102311.66;2097290;28;47526;-66
2024/01/20 01:59:48;;;;;;;;;29.00;27.00;;;;;6.02;100.00;102312.53;2097421;28;46711;-66
2024/01/20 02:00:48;;;;;;;;;35.00;33.40;;;;;6.00;100.00;102310.72;2097344;28;46343;-66
2024/01/20 02:01:48;;;;;;;;;33.50;31.75;;;;;6.00;100.00;102314.25;2096271;28;46014;-66
2024/01/20 02:02:49;;;;;;;;;32.75;29.50;;;;;6.00;100.00;102313.34;2097388;28;46340;-66
2024/01/20 02:03:49;;;;;;;;;33.75;30.50;;;;;5.99;100.00;102314.22;2097401;28;45830;-66
2024/01/20 02:04:50;;;;;;;;;32.75;27.50;;;;;5.96;100.00;102311.47;2097275;28;46512;-66
2024/01/20 02:05:51;;;;;;;;;37.50;31.50;;;;;5.95;100.00;102320.25;2097240;28;46012;-66
2024/01/20 02:06:52;;;;;;;;;34.40;31.40;;;;;5.92;100.00;102314.91;2097918;28;46801;-66
2024/01/20 02:07:53;;;;;;;;;32.40;29.60;;;;;5.89;100.00;102316.59;2097287;28;46005;-66
2024/01/20 02:08:53;;;;;;;;;32.60;29.60;;;;;5.90;100.00;102314.88;2096279;28;46501;-65
2024/01/20 02:09:53;;;;;;;;;32.25;26.75;;;;;5.91;100.00;102316.66;2097210;28;46658;-66
2024/01/20 02:10:54;;;;;;;;;24.00;21.75;;;;;5.92;100.00;102318.44;2096900;28;46908;-65
2024/01/20 02:11:56;;;;;;;;;28.60;27.20;;;;;5.93;100.00;102319.34;2098622;28;46971;-65
2024/01/20 02:12:56;;;;;;;;;23.40;22.80;;;;;5.93;100.00;102324.59;2099223;27;46818;-64
2024/01/20 02:13:57;;;;;;;;;31.25;28.75;;;;;5.91;100.00;102321.94;2096846;28;46107;-66
2024/01/20 02:14:58;;;;;;;;;27.75;24.25;;;;;5.89;100.00;102321.88;2096966;28;45312;-66
2024/01/20 02:16:00;;;;;;;;;33.60;24.80;;;;;5.89;100.00;102320.97;2097079;28;45120;-65
2024/01/20 02:17:00;;;;;;;;;34.00;28.80;;;;;5.89;100.00;102319.22;2096623;28;47129;-65
2024/01/20 02:18:01;;;;;;;;;30.25;26.75;;;;;5.91;100.00;102316.66;2096470;28;46792;-65
2024/01/20 02:19:05;;;;;;;;;29.50;27.00;;;;;5.94;100.00;102318.47;2104548;28;46828;-65
2024/01/20 02:20:06;;;;;;;;;37.00;31.60;;;;;5.89;100.00;102318.34;2104446;28;46603;-66
2024/01/20 02:21:06;;;;;;;;;29.40;26.80;;;;;5.94;100.00;102314.09;2097069;28;46682;-64
2024/01/20 02:22:11;;;;;;;;;27.25;26.25;;;;;5.94;100.00;102313.19;2097143;28;46787;-66
2024/01/20 02:23:12;;;;;;;;;31.40;26.80;;;;;5.94;100.00;102314.09;2097121;28;47087;-65
2024/01/20 02:24:13;;;;;;;;;35.25;28.50;;;;;5.94;100.00;102315.84;2096959;28;46633;-66
2024/01/20 02:25:13;;;;;;;;;26.00;25.20;;;;;5.95;100.00;102315.88;2096390;28;47018;-66
2024/01/20 02:26:13;;;;;;;;;26.50;26.50;;;;;5.95;100.00;102314.97;2096117;28;46733;-65
2024/01/20 02:27:15;;;;;;;;;26.00;25.50;;;;;5.99;100.00;102316.84;2096536;28;46430;-65
2024/01/20 02:28:15;;;;;;;;;28.40;26.20;;;;;5.99;100.00;102307.19;2098763;28;46065;-65
2024/01/20 02:29:16;;;;;;;;;30.75;26.75;;;;;6.01;100.00;102315.13;2097090;28;45905;-65
2024/01/20 02:30:16;;;;;;;;;24.00;24.00;;;;;6.02;100.00;102319.53;2097173;28;46835;-65
2024/01/20 02:31:16;;;;;;;;;28.75;25.25;;;;;6.01;100.00;102312.50;2097025;28;46240;-65
2024/01/20 02:32:17;;;;;;;;;27.75;24.25;;;;;6.00;100.00;102313.34;2095994;28;45918;-66
2024/01/20 02:33:17;;;;;;;;;27.25;25.00;;;;;6.04;100.00;102318.72;2097033;28;46251;-65
2024/01/20 02:34:17;;;;;;;;;24.00;23.00;;;;;6.06;100.00;102324.03;2093051;28;46350;-65
2024/01/20 02:35:21;;;;;;;;;28.50;25.75;;;;;6.05;100.00;102327.50;2095927;28;46329;-65
2024/01/20 02:36:21;;;;;;;;;26.00;25.60;;;;;6.04;100.00;102318.72;2097159;28;46338;-65
2024/01/20 02:37:21;;;;;;;;;30.00;26.25;;;;;6.04;100.00;102318.72;2096334;28;46257;-65
2024/01/20 02:38:22;;;;;;;;;29.25;25.25;;;;;6.06;100.00;102324.91;2096025;28;45224;-65
2024/01/20 02:39:22;;;;;;;;;29.00;25.25;;;;;6.04;100.00;102323.09;2096941;28;46020;-65
2024/01/20 02:40:23;;;;;;;;;34.75;29.50;;;;;6.01;100.00;102321.28;2097284;28;45985;-66
2024/01/20 02:41:23;;;;;;;;;28.75;27.25;;;;;6.01;100.00;102323.94;2097341;28;46925;-66
2024/01/20 02:42:24;;;;;;;;;28.50;25.75;;;;;5.99;100.00;102319.50;2094111;28;46366;-65
2024/01/20 02:43:24;;;;;;;;;30.75;28.75;;;;;6.00;100.00;102322.16;2096759;28;46388;-66
2024/01/20 02:44:24;;;;;;;;;26.00;26.00;;;;;6.01;100.00;102320.41;2094194;28;46086;-64
2024/01/20 02:45:25;;;;;;;;;28.75;28.00;;;;;6.01;100.00;102321.28;2100010;28;46120;-65
2024/01/20 02:46:25;;;;;;;;;23.25;22.50;;;;;6.01;100.00;102316.03;2097564;28;46156;-65
2024/01/20 02:47:25;;;;;;;;;26.75;23.25;;;;;6.02;100.00;102320.44;2098500;28;46475;-67
2024/01/20 02:48:26;;;;;;;;;26.50;25.25;;;;;6.02;100.00;102323.06;2096771;28;46618;-66
2024/01/20 02:49:26;;;;;;;;;17.75;17.00;;;;;6.01;100.00;102329.19;2093199;28;46301;-66
2024/01/20 02:50:26;;;;;;;;;25.75;23.50;;;;;6.01;100.00;102318.66;2096518;28;46320;-67
2024/01/20 02:51:27;;;;;;;;;24.25;22.00;;;;;6.01;100.00;102323.94;2098815;28;46316;-66
2024/01/20 02:52:27;;;;;;;;;27.00;22.25;;;;;6.01;100.00;102326.56;2101112;27;45975;-66
2024/01/20 02:53:28;;;;;;;;;22.25;21.75;;;;;5.98;100.00;102323.88;2096890;28;46659;-66
2024/01/20 02:54:28;;;;;;;;;23.75;22.00;;;;;5.91;100.00;102319.28;2096880;28;46274;-66
2024/01/20 02:55:28;;;;;;;;;23.75;21.00;;;;;5.93;100.00;102330.75;2096118;28;45842;-66
2024/01/20 02:56:29;;;;;;;;;24.00;20.25;;;;;5.91;100.00;102329.84;2096799;28;46696;-66
2024/01/20 02:57:29;;;;;;;;;21.75;20.00;;;;;5.88;100.00;102325.38;2096992;28;46499;-65
2024/01/20 02:58:30;;;;;;;;;23.00;23.00;;;;;5.85;100.00;102327.94;2096973;28;46354;-65
2024/01/20 02:59:30;;;;;;;;;25.75;22.25;;;;;5.84;100.00;102323.53;2095575;28;46663;-65
2024/01/20 03:00:30;;;;;;;;;19.50;18.25;;;;;5.81;100.00;102325.16;2097242;28;46800;-65
2024/01/20 03:01:31;;;;;;;;;22.50;21.00;;;;;5.80;100.00;102333.94;2096806;28;46100;-65
2024/01/20 03:02:31;;;;;;;;;20.50;20.00;;;;;5.81;100.00;102327.81;2097097;28;46497;-66
2024/01/20 03:03:31;;;;;;;;;22.50;21.25;;;;;5.81;100.00;102326.06;2097474;28;45614;-65
2024/01/20 03:04:32;;;;;;;;;27.25;24.50;;;;;5.80;100.00;102320.75;2096877;28;46350;-65
2024/01/20 03:05:32;;;;;;;;;28.00;25.50;;;;;5.79;100.00;102325.13;2097170;28;46051;-66
2024/01/20 03:06:33;;;;;;;;;27.25;20.50;;;;;5.79;100.00;102329.50;2096730;28;46759;-67
2024/01/20 03:07:33;;;;;;;;;24.00;22.00;;;;;5.77;100.00;102324.22;2094657;28;46774;-66
2024/01/20 03:08:33;;;;;;;;;18.00;18.00;;;;;5.75;100.00;102325.94;2096805;28;46675;-65
2024/01/20 03:09:34;;;;;;;;;22.50;21.50;;;;;5.76;100.00;102329.44;2096795;28;46754;-66
2024/01/20 03:10:34;;;;;;;;;21.00;21.00;;;;;5.73;100.00;102319.75;2097598;28;48205;-65
2024/01/20 03:11:35;;;;;;;;;24.50;24.50;;;;;5.75;100.00;102322.41;2096757;28;46409;-66
2024/01/20 03:12:36;;;;;;;;;25.60;22.40;;;;;5.73;100.00;102325.00;2095040;28;47464;-66
2024/01/20 03:13:36;;;;;;;;;23.75;18.75;;;;;5.74;100.00;102325.91;2096859;28;47830;-66
2024/01/20 03:14:36;;;;;;;;;25.75;24.00;;;;;5.75;100.00;102325.94;2097003;28;46575;-66
2024/01/20 03:15:37;;;;;;;;;28.00;25.25;;;;;5.75;100.00;102322.41;2097088;28;45045;-66
2024/01/20 03:16:38;;;;;;;;;23.50;22.00;;;;;5.70;100.00;102326.66;2096955;28;46406;-66
2024/01/20 03:17:38;;;;;;;;;27.00;23.60;;;;;5.68;100.00;102326.63;2099483;28;46155;-65
2024/01/20 03:18:39;;;;;;;;;22.25;21.00;;;;;5.69;100.00;102325.75;2097130;28;46134;-65
2024/01/20 03:19:40;;;;;;;;;24.60;21.80;;;;;5.72;100.00;102324.97;2096764;28;46511;-66
2024/01/20 03:20:40;;;;;;;;;23.00;22.00;;;;;5.75;100.00;102325.03;2097198;28;46676;-65
2024/01/20 03:21:40;;;;;;;;;19.50;19.25;;;;;5.79;100.00;102318.97;2096549;28;46352;-66
2024/01/20 03:22:41;;;;;;;;;22.25;21.25;;;;;5.80;100.00;102319.00;2097019;28;45766;-65
2024/01/20 03:23:42;;;;;;;;;21.25;21.25;;;;;5.80;100.00;102324.28;2097059;28;46449;-66
2024/01/20 03:24:42;;;;;;;;;23.25;20.75;;;;;5.79;100.00;102317.22;2097162;28;46365;-66
2024/01/20 03:25:42;;;;;;;;;26.50;24.25;;;;;5.84;100.00;102325.22;2095105;28;47039;-66
2024/01/20 03:26:46;;;;;;;;;21.50;19.00;;;;;5.84;100.00;102318.25;2096764;28;46608;-66
2024/01/20 03:27:47;;;;;;;;;24.00;21.00;;;;;5.85;100.00;102322.66;2095597;28;47011;-65
2024/01/20 03:28:48;;;;;;;;;23.50;21.75;;;;;5.87;100.00;102318.31;2096714;28;46659;-65
2024/01/20 03:29:48;;;;;;;;;23.20;22.60;;;;;6.03;100.00;102321.31;2094802;28;46332;-65
2024/01/20 03:30:48;;;;;;;;;26.00;23.50;;;;;5.92;100.00;102322.81;2095619;28;46370;-65
2024/01/20 03:31:49;;;;;;;;;26.75;23.25;;;;;5.85;100.00;102320.03;2095857;28;46174;-65
2024/01/20 03:32:50;;;;;;;;;29.25;26.00;;;;;5.85;100.00;102332.31;2103858;28;46190;-64
2024/01/20 03:33:51;;;;;;;;;22.20;21.60;;;;;5.83;100.00;102320.81;2104197;28;46918;-66
2024/01/20 03:34:51;;;;;;;;;22.00;19.50;;;;;5.84;100.00;102334.06;2096781;28;46391;-64
2024/01/20 03:35:51;;;;;;;;;27.50;23.50;;;;;5.84;100.00;102320.88;2096767;28;46277;-66
2024/01/20 03:36:52;;;;;;;;;25.50;22.75;;;;;5.84;100.00;102330.50;2096871;28;46976;-66
2024/01/20 03:37:52;;;;;;;;;23.25;22.50;;;;;5.82;100.00;102327.84;2097092;28;46199;-65
2024/01/20 03:38:53;;;;;;;;;25.50;24.25;;;;;5.82;100.00;102329.56;2096194;28;45820;-66
2024/01/20 03:39:53;;;;;;;;;24.75;24.00;;;;;5.81;100.00;102328.69;2095914;28;45926;-65
2024/01/20 03:40:53;;;;;;;;;22.25;20.75;;;;;5.83;100.00;102328.72;2096904;28;46212;-66
2024/01/20 03:41:54;;;;;;;;;27.00;24.00;;;;;5.82;100.00;102327.84;2097465;28;46639;-65
2024/01/20 03:42:54;;;;;;;;;24.00;22.50;;;;;5.86;100.00;102334.97;2095901;28;46299;-66
2024/01/20 03:43:55;;;;;;;;;24.00;21.25;;;;;5.88;100.00;102325.38;2095761;28;46252;-66
2024/01/20 03:44:56;;;;;;;;;23.40;23.40;;;;;5.88;100.00;102325.38;2096577;28;46048;-65
2024/01/20 03:45:56;;;;;;;;;30.25;23.00;;;;;5.87;100.00;102325.31;2096832;28;46472;-64
2024/01/20 03:46:56;;;;;;;;;25.25;23.75;;;;;5.85;100.00;102321.78;2096565;28;46388;-65
2024/01/20 03:47:57;;;;;;;;;32.25;24.75;;;;;5.84;100.00;102330.50;2096837;28;45956;-64
2024/01/20 03:48:57;;;;;;;;;26.00;22.25;;;;;5.86;100.00;102331.47;2103588;27;45049;-64
2024/01/20 03:49:58;;;;;;;;;29.75;25.25;;;;;5.88;100.00;102329.75;2099449;28;46296;-64
2024/01/20 03:50:58;;;;;;;;;28.75;25.75;;;;;5.87;100.00;102325.31;2095831;28;46365;-64
2024/01/20 03:51:58;;;;;;;;;29.75;26.25;;;;;5.84;100.00;102319.97;2095863;28;46860;-65
2024/01/20 03:52:59;;;;;;;;;24.25;21.50;;;;;5.82;100.00;102325.19;2095960;28;46354;-65
2024/01/20 03:53:59;;;;;;;;;25.75;22.50;;;;;5.81;100.00;102322.53;2095686;28;46246;-65
2024/01/20 03:54:59;;;;;;;;;30.50;23.50;;;;;5.79;100.00;102327.78;2096078;28;46367;-65
2024/01/20 03:56:03;;;;;;;;;28.00;26.50;;;;;5.77;100.00;102325.97;2095871;28;46711;-65
2024/01/20 03:57:04;;;;;;;;;25.20;25.20;;;;;5.74;100.00;102325.91;2096756;28;46620;-67
2024/01/20 03:58:04;;;;;;;;;28.75;21.50;;;;;5.70;100.00;102329.28;2096671;28;46265;-66
2024/01/20 03:59:05;;;;;;;;;28.25;22.75;;;;;5.79;100.00;102326.88;2095960;28;45669;-66
2024/01/20 04:00:06;;;;;;;;;23.25;20.50;;;;;5.66;100.00;102332.72;2096579;28;46529;-66
2024/01/20 04:01:06;;;;;;;;;23.20;23.20;;;;;5.58;100.00;102330.78;2096400;28;46788;-64
2024/01/20 04:02:07;;;;;;;;;30.25;22.50;;;;;5.65;100.00;102333.56;2096695;28;46573;-66
2024/01/20 04:03:07;;;;;;;;;24.00;21.25;;;;;5.57;100.00;102326.34;2096211;28;46266;-65
2024/01/20 04:04:07;;;;;;;;;24.25;23.50;;;;;5.55;100.00;102329.81;2095304;28;45497;-66
2024/01/20 04:05:08;;;;;;;;;26.50;23.00;;;;;5.63;100.00;102325.63;2095463;28;46503;-66
2024/01/20 04:06:08;;;;;;;;;24.25;23.75;;;;;5.65;100.00;102325.66;2096680;28;46654;-65
2024/01/20 04:07:10;;;;;;;;;25.25;22.50;;;;;5.61;100.00;102324.72;2096128;28;46099;-65
2024/01/20 04:08:10;;;;;;;;;21.60;21.60;;;;;5.60;100.00;102328.19;2095969;28;46361;-66
2024/01/20 04:09:11;;;;;;;;;23.75;23.75;;;;;5.57;100.00;102326.34;2095875;28;46430;-66
2024/01/20 04:10:12;;;;;;;;;30.00;26.20;;;;;5.54;100.00;102318.38;2096124;28;46101;-65
2024/01/20 04:11:12;;;;;;;;;27.75;21.50;;;;;5.51;100.00;102325.34;2096737;28;46899;-65
2024/01/20 04:12:12;;;;;;;;;32.25;28.50;;;;;5.51;100.00;102327.97;2096629;28;46376;-65
2024/01/20 04:13:13;;;;;;;;;24.00;22.25;;;;;5.50;100.00;102328.81;2096957;28;46568;-66
2024/01/20 04:14:13;;;;;;;;;29.50;25.75;;;;;5.50;100.00;102323.56;2097061;28;46911;-67
2024/01/20 04:15:13;;;;;;;;;22.00;20.75;;;;;5.48;100.00;102336.69;2096645;28;46290;-65
2024/01/20 04:16:14;;;;;;;;;26.75;24.25;;;;;5.50;100.00;102334.09;2096622;28;46441;-66
2024/01/20 04:17:14;;;;;;;;;28.25;22.25;;;;;5.45;100.00;102336.59;2095880;28;46779;-66
2024/01/20 04:18:14;;;;;;;;;25.75;23.75;;;;;5.37;100.00;102332.00;2096668;28;46519;-65
2024/01/20 04:19:15;;;;;;;;;31.50;25.00;;;;;5.35;100.00;102336.34;2096366;28;46534;-66
2024/01/20 04:20:15;;;;;;;;;21.50;20.00;;;;;5.39;100.00;102340.81;2103897;28;46019;-66
2024/01/20 04:21:15;;;;;;;;;23.25;21.00;;;;;5.40;100.00;102345.22;2103617;27;46360;-66
2024/01/20 04:22:16;;;;;;;;;27.00;24.75;;;;;5.43;100.00;102334.78;2095876;28;45706;-66
2024/01/20 04:23:16;;;;;;;;;31.25;23.50;;;;;5.33;100.00;102333.63;2095607;28;45773;-65
2024/01/20 04:24:16;;;;;;;;;23.50;22.00;;;;;5.32;100.00;102337.13;2096590;28;46648;-65
2024/01/20 04:25:17;;;;;;;;;24.75;21.00;;;;;5.41;100.00;102342.63;2096948;28;46817;-65
2024/01/20 04:26:17;;;;;;;;;20.25;17.75;;;;;5.44;100.00;102336.56;2097077;28;46316;-64
2024/01/20 04:27:17;;;;;;;;;23.50;22.00;;;;;5.41;100.00;102336.47;2096755;28;46324;-65
2024/01/20 04:28:18;;;;;;;;;22.50;21.50;;;;;5.43;100.00;102338.28;2095944;28;46599;-65
2024/01/20 04:29:18;;;;;;;;;24.25;21.75;;;;;5.45;100.00;102336.59;2095950;28;45515;-65
2024/01/20 04:30:18;;;;;;;;;21.75;20.00;;;;;5.48;100.00;102341.94;2095413;28;46309;-66
2024/01/20 04:31:19;;;;;;;;;23.00;21.50;;;;;5.48;100.00;102343.69;2094532;28;46245;-65
2024/01/20 04:32:19;;;;;;;;;24.25;21.25;;;;;5.46;100.00;102340.09;2095927;28;46660;-66
2024/01/20 04:33:19;;;;;;;;;22.75;21.25;;;;;5.44;100.00;102347.06;2096383;28;46285;-65
2024/01/20 04:34:20;;;;;;;;;20.25;20.25;;;;;5.42;100.00;102340.88;2096412;28;46353;-65
2024/01/20 04:35:20;;;;;;;;;20.25;20.25;;;;;5.42;100.00;102333.00;2092743;28;46342;-65